sensor_id;sensor_type;location;lat;lon;timestamp;P1;durP1;ratioP1;P2;durP2;ratioP2
5279;SDS011;2663;53.588;10.010;2023-07-31T00:01:33;7.83;;;2.40;;
5279;SDS011;2663;53.588;10.010;2023-07-31T00:03:59;6.57;;;3.10;;
5279;SDS011;2663;53.588;10.010;2023-07-31T00:06:26;11.33;;;3.20;;
5279;SDS011;2663;53.588;10.010;2023-07-31T00:08:53;8.77;;;2.80;;
5279;SDS011;2663;53.588;10.010;2023-07-31T00:11:20;7.23;;;2.60;;
5279;SDS011;2663;53.588;10.010;2023-07-31T00:13:46;11.43;;;2.83;;
5279;SDS011;2663;53.588;10.010;2023-07-31T00:16:13;10.97;;;2.90;;
5279;SDS011;2663;53.588;10.010;2023-07-31T00:18:40;16.60;;;4.03;;
5279;SDS011;2663;53.588;10.010;2023-07-31T00:21:06;10.80;;;2.77;;
5279;SDS011;2663;53.588;10.010;2023-07-31T00:23:33;10.90;;;2.40;;
5279;SDS011;2663;53.588;10.010;2023-07-31T00:26:00;10.53;;;1.97;;
5279;SDS011;2663;53.588;10.010;2023-07-31T00:28:27;5.70;;;2.00;;
5279;SDS011;2663;53.588;10.010;2023-07-31T00:30:55;6.90;;;1.97;;
5279;SDS011;2663;53.588;10.010;2023-07-31T00:33:21;7.37;;;2.00;;
5279;SDS011;2663;53.588;10.010;2023-07-31T00:35:48;7.20;;;2.50;;
5279;SDS011;2663;53.588;10.010;2023-07-31T00:38:15;13.43;;;2.73;;
5279;SDS011;2663;53.588;10.010;2023-07-31T00:40:42;8.27;;;2.23;;
5279;SDS011;2663;53.588;10.010;2023-07-31T00:43:08;14.87;;;2.03;;
5279;SDS011;2663;53.588;10.010;2023-07-31T00:45:35;13.53;;;2.67;;
5279;SDS011;2663;53.588;10.010;2023-07-31T00:48:02;5.60;;;1.93;;
5279;SDS011;2663;53.588;10.010;2023-07-31T00:50:29;8.20;;;2.10;;
5279;SDS011;2663;53.588;10.010;2023-07-31T00:52:56;16.80;;;2.63;;
5279;SDS011;2663;53.588;10.010;2023-07-31T00:55:23;10.03;;;1.97;;
5279;SDS011;2663;53.588;10.010;2023-07-31T00:57:50;9.03;;;2.43;;
5279;SDS011;2663;53.588;10.010;2023-07-31T01:00:19;6.63;;;2.37;;
5279;SDS011;2663;53.588;10.010;2023-07-31T01:02:45;7.50;;;2.37;;
5279;SDS011;2663;53.588;10.010;2023-07-31T01:05:13;5.60;;;1.90;;
5279;SDS011;2663;53.588;10.010;2023-07-31T01:07:55;6.83;;;2.57;;
5279;SDS011;2663;53.588;10.010;2023-07-31T01:10:30;5.17;;;2.10;;
5279;SDS011;2663;53.588;10.010;2023-07-31T01:13:03;7.70;;;2.63;;
5279;SDS011;2663;53.588;10.010;2023-07-31T01:15:30;22.53;;;3.63;;
5279;SDS011;2663;53.588;10.010;2023-07-31T01:17:57;6.53;;;2.67;;
5279;SDS011;2663;53.588;10.010;2023-07-31T01:20:24;10.73;;;3.00;;
5279;SDS011;2663;53.588;10.010;2023-07-31T01:28:54;11.80;;;3.00;;
5279;SDS011;2663;53.588;10.010;2023-07-31T01:31:26;9.50;;;2.57;;
5279;SDS011;2663;53.588;10.010;2023-07-31T01:33:56;4.70;;;2.33;;
5279;SDS011;2663;53.588;10.010;2023-07-31T01:36:26;6.40;;;2.57;;
5279;SDS011;2663;53.588;10.010;2023-07-31T01:38:58;4.47;;;3.00;;
5279;SDS011;2663;53.588;10.010;2023-07-31T01:41:26;10.47;;;2.70;;
5279;SDS011;2663;53.588;10.010;2023-07-31T01:43:53;7.30;;;2.73;;
5279;SDS011;2663;53.588;10.010;2023-07-31T01:46:20;5.33;;;2.63;;
5279;SDS011;2663;53.588;10.010;2023-07-31T01:48:46;10.40;;;4.33;;
5279;SDS011;2663;53.588;10.010;2023-07-31T01:51:13;6.70;;;2.20;;
5279;SDS011;2663;53.588;10.010;2023-07-31T01:53:40;8.20;;;3.17;;
5279;SDS011;2663;53.588;10.010;2023-07-31T01:56:06;6.63;;;2.63;;
5279;SDS011;2663;53.588;10.010;2023-07-31T01:58:33;7.90;;;2.90;;
5279;SDS011;2663;53.588;10.010;2023-07-31T02:01:00;7.50;;;2.77;;
5279;SDS011;2663;53.588;10.010;2023-07-31T02:03:26;13.43;;;2.87;;
5279;SDS011;2663;53.588;10.010;2023-07-31T02:05:54;11.80;;;3.20;;
5279;SDS011;2663;53.588;10.010;2023-07-31T02:08:21;4.50;;;2.97;;
5279;SDS011;2663;53.588;10.010;2023-07-31T02:10:47;4.27;;;2.87;;
5279;SDS011;2663;53.588;10.010;2023-07-31T02:13:14;9.30;;;2.63;;
5279;SDS011;2663;53.588;10.010;2023-07-31T02:15:40;6.80;;;3.03;;
5279;SDS011;2663;53.588;10.010;2023-07-31T02:18:07;11.63;;;3.03;;
5279;SDS011;2663;53.588;10.010;2023-07-31T02:20:34;5.73;;;2.80;;
5279;SDS011;2663;53.588;10.010;2023-07-31T02:23:02;7.67;;;2.60;;
5279;SDS011;2663;53.588;10.010;2023-07-31T02:25:28;12.53;;;2.90;;
5279;SDS011;2663;53.588;10.010;2023-07-31T02:27:55;9.73;;;2.63;;
5279;SDS011;2663;53.588;10.010;2023-07-31T02:30:22;6.70;;;2.97;;
5279;SDS011;2663;53.588;10.010;2023-07-31T02:32:49;5.90;;;2.27;;
5279;SDS011;2663;53.588;10.010;2023-07-31T02:35:16;3.50;;;2.23;;
5279;SDS011;2663;53.588;10.010;2023-07-31T02:37:44;7.20;;;2.63;;
5279;SDS011;2663;53.588;10.010;2023-07-31T02:40:11;5.80;;;2.77;;
5279;SDS011;2663;53.588;10.010;2023-07-31T02:42:38;13.13;;;3.30;;
5279;SDS011;2663;53.588;10.010;2023-07-31T02:45:05;7.93;;;2.40;;
5279;SDS011;2663;53.588;10.010;2023-07-31T02:47:32;14.57;;;3.20;;
5279;SDS011;2663;53.588;10.010;2023-07-31T02:49:58;6.50;;;2.57;;
5279;SDS011;2663;53.588;10.010;2023-07-31T02:52:26;9.90;;;2.80;;
5279;SDS011;2663;53.588;10.010;2023-07-31T02:54:52;6.80;;;2.40;;
5279;SDS011;2663;53.588;10.010;2023-07-31T02:57:20;14.47;;;2.60;;
5279;SDS011;2663;53.588;10.010;2023-07-31T02:59:46;6.60;;;2.70;;
5279;SDS011;2663;53.588;10.010;2023-07-31T03:02:13;9.20;;;2.73;;
5279;SDS011;2663;53.588;10.010;2023-07-31T03:04:40;6.87;;;3.13;;
5279;SDS011;2663;53.588;10.010;2023-07-31T03:07:07;5.80;;;2.17;;
5279;SDS011;2663;53.588;10.010;2023-07-31T03:09:33;4.10;;;2.70;;
5279;SDS011;2663;53.588;10.010;2023-07-31T03:12:00;8.10;;;2.90;;
5279;SDS011;2663;53.588;10.010;2023-07-31T03:14:27;7.60;;;3.17;;
5279;SDS011;2663;53.588;10.010;2023-07-31T03:16:54;11.83;;;3.37;;
5279;SDS011;2663;53.588;10.010;2023-07-31T03:19:20;9.97;;;3.30;;
5279;SDS011;2663;53.588;10.010;2023-07-31T03:21:47;5.23;;;2.40;;
5279;SDS011;2663;53.588;10.010;2023-07-31T03:24:14;10.87;;;2.37;;
5279;SDS011;2663;53.588;10.010;2023-07-31T03:26:40;22.00;;;2.83;;
5279;SDS011;2663;53.588;10.010;2023-07-31T03:29:08;4.53;;;2.73;;
5279;SDS011;2663;53.588;10.010;2023-07-31T03:31:35;6.23;;;2.20;;
5279;SDS011;2663;53.588;10.010;2023-07-31T03:34:01;11.50;;;2.70;;
5279;SDS011;2663;53.588;10.010;2023-07-31T03:36:28;12.17;;;3.33;;
5279;SDS011;2663;53.588;10.010;2023-07-31T03:38:55;13.50;;;3.20;;
5279;SDS011;2663;53.588;10.010;2023-07-31T03:41:21;5.90;;;2.50;;
5279;SDS011;2663;53.588;10.010;2023-07-31T03:43:49;3.43;;;2.37;;
5279;SDS011;2663;53.588;10.010;2023-07-31T03:46:18;6.03;;;2.30;;
5279;SDS011;2663;53.588;10.010;2023-07-31T03:48:45;2.73;;;2.40;;
5279;SDS011;2663;53.588;10.010;2023-07-31T03:51:11;8.80;;;2.53;;
5279;SDS011;2663;53.588;10.010;2023-07-31T03:53:38;4.57;;;2.97;;
5279;SDS011;2663;53.588;10.010;2023-07-31T03:56:05;10.70;;;2.80;;
5279;SDS011;2663;53.588;10.010;2023-07-31T03:58:31;7.40;;;2.57;;
5279;SDS011;2663;53.588;10.010;2023-07-31T04:00:58;2.90;;;2.37;;
5279;SDS011;2663;53.588;10.010;2023-07-31T04:03:25;5.87;;;2.63;;
5279;SDS011;2663;53.588;10.010;2023-07-31T04:05:53;3.37;;;2.70;;
5279;SDS011;2663;53.588;10.010;2023-07-31T04:08:22;8.40;;;3.00;;
5279;SDS011;2663;53.588;10.010;2023-07-31T04:10:49;7.70;;;2.97;;
5279;SDS011;2663;53.588;10.010;2023-07-31T04:13:16;4.23;;;3.20;;
5279;SDS011;2663;53.588;10.010;2023-07-31T04:15:42;4.20;;;2.63;;
5279;SDS011;2663;53.588;10.010;2023-07-31T04:18:17;3.30;;;3.00;;
5279;SDS011;2663;53.588;10.010;2023-07-31T04:20:44;4.70;;;2.70;;
5279;SDS011;2663;53.588;10.010;2023-07-31T04:23:11;5.83;;;2.30;;
5279;SDS011;2663;53.588;10.010;2023-07-31T04:25:38;6.67;;;2.53;;
5279;SDS011;2663;53.588;10.010;2023-07-31T04:28:04;3.37;;;2.77;;
5279;SDS011;2663;53.588;10.010;2023-07-31T04:30:31;4.03;;;2.70;;
5279;SDS011;2663;53.588;10.010;2023-07-31T04:32:58;5.40;;;2.90;;
5279;SDS011;2663;53.588;10.010;2023-07-31T04:35:25;2.50;;;2.30;;
5279;SDS011;2663;53.588;10.010;2023-07-31T04:37:52;5.63;;;3.10;;
5279;SDS011;2663;53.588;10.010;2023-07-31T04:40:18;8.30;;;2.63;;
5279;SDS011;2663;53.588;10.010;2023-07-31T04:42:45;6.63;;;3.17;;
5279;SDS011;2663;53.588;10.010;2023-07-31T04:45:12;4.53;;;2.37;;
5279;SDS011;2663;53.588;10.010;2023-07-31T04:47:40;3.07;;;2.20;;
5279;SDS011;2663;53.588;10.010;2023-07-31T04:50:07;3.60;;;2.23;;
5279;SDS011;2663;53.588;10.010;2023-07-31T04:52:34;8.63;;;2.57;;
5279;SDS011;2663;53.588;10.010;2023-07-31T04:55:00;5.03;;;2.67;;
5279;SDS011;2663;53.588;10.010;2023-07-31T04:57:27;4.27;;;2.70;;
5279;SDS011;2663;53.588;10.010;2023-07-31T04:59:54;3.37;;;2.73;;
5279;SDS011;2663;53.588;10.010;2023-07-31T05:02:20;2.33;;;1.97;;
5279;SDS011;2663;53.588;10.010;2023-07-31T05:04:47;2.87;;;2.67;;
5279;SDS011;2663;53.588;10.010;2023-07-31T05:07:14;5.00;;;2.57;;
5279;SDS011;2663;53.588;10.010;2023-07-31T05:09:41;2.10;;;1.90;;
5279;SDS011;2663;53.588;10.010;2023-07-31T05:12:07;3.03;;;2.40;;
5279;SDS011;2663;53.588;10.010;2023-07-31T05:14:34;3.73;;;2.43;;
5279;SDS011;2663;53.588;10.010;2023-07-31T05:17:01;5.40;;;3.10;;
5279;SDS011;2663;53.588;10.010;2023-07-31T05:19:27;2.83;;;2.63;;
5279;SDS011;2663;53.588;10.010;2023-07-31T05:21:54;3.43;;;2.50;;
5279;SDS011;2663;53.588;10.010;2023-07-31T05:24:21;3.17;;;2.37;;
5279;SDS011;2663;53.588;10.010;2023-07-31T05:26:47;3.87;;;2.30;;
5279;SDS011;2663;53.588;10.010;2023-07-31T05:29:14;2.27;;;2.17;;
5279;SDS011;2663;53.588;10.010;2023-07-31T05:31:41;3.00;;;2.17;;
5279;SDS011;2663;53.588;10.010;2023-07-31T05:34:08;5.83;;;2.33;;
5279;SDS011;2663;53.588;10.010;2023-07-31T05:36:34;3.70;;;2.27;;
5279;SDS011;2663;53.588;10.010;2023-07-31T05:39:01;2.10;;;2.00;;
5279;SDS011;2663;53.588;10.010;2023-07-31T05:41:32;1.93;;;1.83;;
5279;SDS011;2663;53.588;10.010;2023-07-31T05:43:59;2.40;;;2.20;;
5279;SDS011;2663;53.588;10.010;2023-07-31T05:46:26;2.47;;;2.27;;
5279;SDS011;2663;53.588;10.010;2023-07-31T05:48:52;1.87;;;1.77;;
5279;SDS011;2663;53.588;10.010;2023-07-31T05:51:19;4.10;;;2.17;;
5279;SDS011;2663;53.588;10.010;2023-07-31T05:53:46;1.90;;;1.80;;
5279;SDS011;2663;53.588;10.010;2023-07-31T05:56:12;3.30;;;2.50;;
5279;SDS011;2663;53.588;10.010;2023-07-31T05:58:39;4.07;;;2.43;;
5279;SDS011;2663;53.588;10.010;2023-07-31T06:01:06;3.63;;;2.60;;
5279;SDS011;2663;53.588;10.010;2023-07-31T06:03:33;4.23;;;2.70;;
5279;SDS011;2663;53.588;10.010;2023-07-31T06:05:59;3.73;;;2.50;;
5279;SDS011;2663;53.588;10.010;2023-07-31T06:08:26;2.80;;;2.13;;
5279;SDS011;2663;53.588;10.010;2023-07-31T06:10:53;3.00;;;2.63;;
5279;SDS011;2663;53.588;10.010;2023-07-31T06:13:20;3.20;;;2.47;;
5279;SDS011;2663;53.588;10.010;2023-07-31T06:15:47;4.80;;;2.30;;
5279;SDS011;2663;53.588;10.010;2023-07-31T06:18:13;3.10;;;2.80;;
5279;SDS011;2663;53.588;10.010;2023-07-31T06:20:40;3.00;;;2.40;;
5279;SDS011;2663;53.588;10.010;2023-07-31T06:23:07;4.07;;;2.50;;
5279;SDS011;2663;53.588;10.010;2023-07-31T06:25:34;2.90;;;2.67;;
5279;SDS011;2663;53.588;10.010;2023-07-31T06:28:00;2.70;;;2.50;;
5279;SDS011;2663;53.588;10.010;2023-07-31T06:30:27;4.43;;;2.27;;
5279;SDS011;2663;53.588;10.010;2023-07-31T06:32:54;4.60;;;2.63;;
5279;SDS011;2663;53.588;10.010;2023-07-31T06:35:21;3.43;;;2.40;;
5279;SDS011;2663;53.588;10.010;2023-07-31T06:37:47;2.63;;;2.43;;
5279;SDS011;2663;53.588;10.010;2023-07-31T06:40:14;3.17;;;2.50;;
5279;SDS011;2663;53.588;10.010;2023-07-31T06:42:41;2.13;;;2.03;;
5279;SDS011;2663;53.588;10.010;2023-07-31T06:45:08;2.70;;;2.50;;
5279;SDS011;2663;53.588;10.010;2023-07-31T06:47:35;2.80;;;2.60;;
5279;SDS011;2663;53.588;10.010;2023-07-31T06:50:02;3.00;;;2.60;;
5279;SDS011;2663;53.588;10.010;2023-07-31T06:52:29;2.37;;;2.27;;
5279;SDS011;2663;53.588;10.010;2023-07-31T06:57:48;2.90;;;2.70;;
5279;SDS011;2663;53.588;10.010;2023-07-31T07:00:16;3.23;;;2.77;;
5279;SDS011;2663;53.588;10.010;2023-07-31T07:02:44;4.37;;;3.23;;
5279;SDS011;2663;53.588;10.010;2023-07-31T07:05:13;2.70;;;2.50;;
5279;SDS011;2663;53.588;10.010;2023-07-31T07:07:41;2.53;;;2.33;;
5279;SDS011;2663;53.588;10.010;2023-07-31T07:10:08;2.53;;;2.33;;
5279;SDS011;2663;53.588;10.010;2023-07-31T07:12:35;2.60;;;2.30;;
5279;SDS011;2663;53.588;10.010;2023-07-31T07:15:02;2.50;;;2.30;;
5279;SDS011;2663;53.588;10.010;2023-07-31T07:17:29;2.10;;;1.93;;
5279;SDS011;2663;53.588;10.010;2023-07-31T07:19:59;3.20;;;2.60;;
5279;SDS011;2663;53.588;10.010;2023-07-31T07:22:26;2.27;;;2.07;;
5279;SDS011;2663;53.588;10.010;2023-07-31T07:24:53;2.40;;;2.20;;
5279;SDS011;2663;53.588;10.010;2023-07-31T07:27:20;2.10;;;2.00;;
5279;SDS011;2663;53.588;10.010;2023-07-31T07:29:49;2.00;;;1.90;;
5279;SDS011;2663;53.588;10.010;2023-07-31T07:32:16;3.90;;;2.40;;
5279;SDS011;2663;53.588;10.010;2023-07-31T07:34:44;2.57;;;2.30;;
5279;SDS011;2663;53.588;10.010;2023-07-31T07:37:11;2.23;;;2.03;;
5279;SDS011;2663;53.588;10.010;2023-07-31T07:39:38;2.03;;;1.93;;
5279;SDS011;2663;53.588;10.010;2023-07-31T07:42:04;2.30;;;2.10;;
5279;SDS011;2663;53.588;10.010;2023-07-31T07:44:31;5.00;;;2.20;;
5279;SDS011;2663;53.588;10.010;2023-07-31T07:46:58;2.43;;;2.23;;
5279;SDS011;2663;53.588;10.010;2023-07-31T07:49:25;3.53;;;2.70;;
5279;SDS011;2663;53.588;10.010;2023-07-31T07:51:51;2.70;;;2.50;;
5279;SDS011;2663;53.588;10.010;2023-07-31T07:54:18;2.60;;;2.40;;
5279;SDS011;2663;53.588;10.010;2023-07-31T07:56:47;3.20;;;2.83;;
5279;SDS011;2663;53.588;10.010;2023-07-31T07:59:14;3.53;;;2.40;;
5279;SDS011;2663;53.588;10.010;2023-07-31T08:01:40;2.73;;;2.40;;
5279;SDS011;2663;53.588;10.010;2023-07-31T08:04:07;3.13;;;2.70;;
5279;SDS011;2663;53.588;10.010;2023-07-31T08:06:34;2.70;;;2.60;;
5279;SDS011;2663;53.588;10.010;2023-07-31T08:09:01;3.00;;;2.80;;
5279;SDS011;2663;53.588;10.010;2023-07-31T08:11:32;4.43;;;3.80;;
5279;SDS011;2663;53.588;10.010;2023-07-31T08:13:59;4.53;;;2.57;;
5279;SDS011;2663;53.588;10.010;2023-07-31T08:16:26;3.70;;;3.00;;
5279;SDS011;2663;53.588;10.010;2023-07-31T08:18:53;3.33;;;2.97;;
5279;SDS011;2663;53.588;10.010;2023-07-31T08:21:20;3.27;;;2.97;;
5279;SDS011;2663;53.588;10.010;2023-07-31T08:23:48;5.43;;;2.40;;
5279;SDS011;2663;53.588;10.010;2023-07-31T08:26:15;2.60;;;2.40;;
5279;SDS011;2663;53.588;10.010;2023-07-31T08:28:43;3.17;;;2.93;;
5279;SDS011;2663;53.588;10.010;2023-07-31T08:31:10;3.83;;;3.00;;
5279;SDS011;2663;53.588;10.010;2023-07-31T08:33:37;2.73;;;2.33;;
5279;SDS011;2663;53.588;10.010;2023-07-31T08:36:05;2.93;;;2.60;;
5279;SDS011;2663;53.588;10.010;2023-07-31T08:38:32;3.80;;;2.73;;
5279;SDS011;2663;53.588;10.010;2023-07-31T08:40:59;2.57;;;2.37;;
5279;SDS011;2663;53.588;10.010;2023-07-31T08:43:26;2.67;;;2.47;;
5279;SDS011;2663;53.588;10.010;2023-07-31T08:45:53;2.63;;;2.43;;
5279;SDS011;2663;53.588;10.010;2023-07-31T08:48:21;2.27;;;2.07;;
5279;SDS011;2663;53.588;10.010;2023-07-31T08:50:49;2.90;;;2.60;;
5279;SDS011;2663;53.588;10.010;2023-07-31T08:53:17;2.40;;;1.80;;
5279;SDS011;2663;53.588;10.010;2023-07-31T08:55:44;1.73;;;1.63;;
5279;SDS011;2663;53.588;10.010;2023-07-31T08:58:12;2.17;;;1.77;;
5279;SDS011;2663;53.588;10.010;2023-07-31T09:00:40;4.10;;;1.50;;
5279;SDS011;2663;53.588;10.010;2023-07-31T09:03:14;1.77;;;1.67;;
5279;SDS011;2663;53.588;10.010;2023-07-31T09:05:43;3.40;;;2.10;;
5279;SDS011;2663;53.588;10.010;2023-07-31T09:08:12;1.60;;;1.50;;
5279;SDS011;2663;53.588;10.010;2023-07-31T09:10:41;1.70;;;1.60;;
5279;SDS011;2663;53.588;10.010;2023-07-31T09:13:09;3.70;;;1.63;;
5279;SDS011;2663;53.588;10.010;2023-07-31T09:15:38;1.60;;;1.50;;
5279;SDS011;2663;53.588;10.010;2023-07-31T09:18:06;2.47;;;1.70;;
5279;SDS011;2663;53.588;10.010;2023-07-31T09:20:34;1.83;;;1.50;;
5279;SDS011;2663;53.588;10.010;2023-07-31T09:23:05;3.03;;;1.90;;
5279;SDS011;2663;53.588;10.010;2023-07-31T09:25:34;3.80;;;2.00;;
5279;SDS011;2663;53.588;10.010;2023-07-31T09:28:02;2.60;;;2.13;;
5279;SDS011;2663;53.588;10.010;2023-07-31T09:30:32;1.47;;;1.20;;
5279;SDS011;2663;53.588;10.010;2023-07-31T09:33:11;4.53;;;1.30;;
5279;SDS011;2663;53.588;10.010;2023-07-31T09:35:38;1.83;;;1.23;;
5279;SDS011;2663;53.588;10.010;2023-07-31T09:38:08;5.17;;;1.60;;
5279;SDS011;2663;53.588;10.010;2023-07-31T09:40:37;3.07;;;1.63;;
5279;SDS011;2663;53.588;10.010;2023-07-31T09:43:06;1.67;;;1.40;;
5279;SDS011;2663;53.588;10.010;2023-07-31T09:45:35;1.40;;;1.30;;
5279;SDS011;2663;53.588;10.010;2023-07-31T09:48:07;1.20;;;1.20;;
5279;SDS011;2663;53.588;10.010;2023-07-31T09:50:39;1.00;;;1.00;;
5279;SDS011;2663;53.588;10.010;2023-07-31T09:53:07;1.30;;;1.20;;
5279;SDS011;2663;53.588;10.010;2023-07-31T09:55:35;1.07;;;1.07;;
5279;SDS011;2663;53.588;10.010;2023-07-31T09:58:04;1.10;;;1.10;;
5279;SDS011;2663;53.588;10.010;2023-07-31T10:00:33;1.57;;;1.20;;
5279;SDS011;2663;53.588;10.010;2023-07-31T10:03:10;0.87;;;0.87;;
5279;SDS011;2663;53.588;10.010;2023-07-31T10:05:40;3.27;;;0.97;;
5279;SDS011;2663;53.588;10.010;2023-07-31T10:08:12;1.00;;;1.00;;
5279;SDS011;2663;53.588;10.010;2023-07-31T10:10:42;1.50;;;1.40;;
5279;SDS011;2663;53.588;10.010;2023-07-31T10:13:09;1.60;;;1.50;;
5279;SDS011;2663;53.588;10.010;2023-07-31T10:15:37;2.67;;;1.47;;
5279;SDS011;2663;53.588;10.010;2023-07-31T10:18:07;1.53;;;1.30;;
5279;SDS011;2663;53.588;10.010;2023-07-31T10:20:34;1.60;;;1.50;;
5279;SDS011;2663;53.588;10.010;2023-07-31T10:23:02;1.07;;;1.00;;
5279;SDS011;2663;53.588;10.010;2023-07-31T10:25:30;1.20;;;1.00;;
5279;SDS011;2663;53.588;10.010;2023-07-31T10:27:58;1.93;;;1.37;;
5279;SDS011;2663;53.588;10.010;2023-07-31T10:30:26;1.60;;;1.50;;
5279;SDS011;2663;53.588;10.010;2023-07-31T10:32:55;0.57;;;0.57;;
5279;SDS011;2663;53.588;10.010;2023-07-31T10:35:23;0.87;;;0.87;;
5279;SDS011;2663;53.588;10.010;2023-07-31T10:37:51;0.80;;;0.80;;
5279;SDS011;2663;53.588;10.010;2023-07-31T10:40:19;0.90;;;0.90;;
5279;SDS011;2663;53.588;10.010;2023-07-31T10:42:52;2.90;;;1.30;;
5279;SDS011;2663;53.588;10.010;2023-07-31T10:48:01;1.20;;;1.17;;
5279;SDS011;2663;53.588;10.010;2023-07-31T10:50:29;3.70;;;1.00;;
5279;SDS011;2663;53.588;10.010;2023-07-31T10:52:59;1.27;;;1.00;;
5279;SDS011;2663;53.588;10.010;2023-07-31T10:58:11;0.90;;;0.90;;
5279;SDS011;2663;53.588;10.010;2023-07-31T11:00:40;1.00;;;0.90;;
5279;SDS011;2663;53.588;10.010;2023-07-31T11:03:09;2.87;;;1.17;;
5279;SDS011;2663;53.588;10.010;2023-07-31T11:08:23;1.53;;;0.80;;
5279;SDS011;2663;53.588;10.010;2023-07-31T11:16:19;1.00;;;0.80;;
5279;SDS011;2663;53.588;10.010;2023-07-31T11:18:48;0.80;;;0.73;;
5279;SDS011;2663;53.588;10.010;2023-07-31T11:21:19;1.37;;;1.23;;
5279;SDS011;2663;53.588;10.010;2023-07-31T11:23:47;1.30;;;1.10;;
5279;SDS011;2663;53.588;10.010;2023-07-31T11:26:15;3.70;;;1.30;;
5279;SDS011;2663;53.588;10.010;2023-07-31T11:28:43;1.40;;;1.30;;
5279;SDS011;2663;53.588;10.010;2023-07-31T11:31:13;1.00;;;1.00;;
5279;SDS011;2663;53.588;10.010;2023-07-31T11:33:40;0.80;;;0.80;;
5279;SDS011;2663;53.588;10.010;2023-07-31T11:36:10;1.10;;;1.00;;
5279;SDS011;2663;53.588;10.010;2023-07-31T11:38:41;1.17;;;0.70;;
5279;SDS011;2663;53.588;10.010;2023-07-31T11:41:08;0.60;;;0.60;;
5279;SDS011;2663;53.588;10.010;2023-07-31T11:43:35;0.90;;;0.70;;
5279;SDS011;2663;53.588;10.010;2023-07-31T11:46:05;1.50;;;1.40;;
5279;SDS011;2663;53.588;10.010;2023-07-31T11:48:33;2.43;;;2.23;;
5279;SDS011;2663;53.588;10.010;2023-07-31T11:51:03;2.40;;;2.20;;
5279;SDS011;2663;53.588;10.010;2023-07-31T11:53:31;0.90;;;0.90;;
5279;SDS011;2663;53.588;10.010;2023-07-31T11:56:04;3.10;;;1.10;;
5279;SDS011;2663;53.588;10.010;2023-07-31T11:58:34;1.47;;;0.93;;
5279;SDS011;2663;53.588;10.010;2023-07-31T12:01:02;4.60;;;1.87;;
5279;SDS011;2663;53.588;10.010;2023-07-31T12:03:30;2.20;;;1.33;;
5279;SDS011;2663;53.588;10.010;2023-07-31T12:05:58;0.80;;;0.80;;
5279;SDS011;2663;53.588;10.010;2023-07-31T12:08:25;1.27;;;1.00;;
5279;SDS011;2663;53.588;10.010;2023-07-31T12:10:52;0.90;;;0.77;;
5279;SDS011;2663;53.588;10.010;2023-07-31T12:13:24;2.17;;;1.23;;
5279;SDS011;2663;53.588;10.010;2023-07-31T12:15:55;0.93;;;0.93;;
5279;SDS011;2663;53.588;10.010;2023-07-31T12:18:24;1.00;;;0.90;;
5279;SDS011;2663;53.588;10.010;2023-07-31T12:20:59;1.00;;;0.87;;
5279;SDS011;2663;53.588;10.010;2023-07-31T12:23:27;1.83;;;1.00;;
5279;SDS011;2663;53.588;10.010;2023-07-31T12:26:09;3.03;;;1.27;;
5279;SDS011;2663;53.588;10.010;2023-07-31T12:28:36;2.00;;;1.00;;
5279;SDS011;2663;53.588;10.010;2023-07-31T12:31:08;1.00;;;0.80;;
5279;SDS011;2663;53.588;10.010;2023-07-31T12:33:37;0.60;;;0.60;;
5279;SDS011;2663;53.588;10.010;2023-07-31T12:36:09;0.87;;;0.87;;
5279;SDS011;2663;53.588;10.010;2023-07-31T12:38:38;1.37;;;1.27;;
5279;SDS011;2663;53.588;10.010;2023-07-31T12:41:05;1.23;;;1.13;;
5279;SDS011;2663;53.588;10.010;2023-07-31T12:43:35;0.90;;;0.90;;
5279;SDS011;2663;53.588;10.010;2023-07-31T12:46:03;2.70;;;1.10;;
5279;SDS011;2663;53.588;10.010;2023-07-31T12:48:31;1.20;;;1.10;;
5279;SDS011;2663;53.588;10.010;2023-07-31T12:50:58;0.90;;;0.70;;
5279;SDS011;2663;53.588;10.010;2023-07-31T12:53:24;0.50;;;0.50;;
5279;SDS011;2663;53.588;10.010;2023-07-31T12:55:51;2.60;;;1.10;;
5279;SDS011;2663;53.588;10.010;2023-07-31T12:58:18;1.27;;;0.90;;
5279;SDS011;2663;53.588;10.010;2023-07-31T13:00:45;1.20;;;1.20;;
5279;SDS011;2663;53.588;10.010;2023-07-31T13:03:12;1.70;;;0.87;;
5279;SDS011;2663;53.588;10.010;2023-07-31T13:05:38;1.03;;;1.03;;
5279;SDS011;2663;53.588;10.010;2023-07-31T13:08:05;2.40;;;0.70;;
5279;SDS011;2663;53.588;10.010;2023-07-31T13:10:32;2.30;;;0.87;;
5279;SDS011;2663;53.588;10.010;2023-07-31T13:12:59;0.70;;;0.70;;
5279;SDS011;2663;53.588;10.010;2023-07-31T13:15:25;2.77;;;1.70;;
5279;SDS011;2663;53.588;10.010;2023-07-31T13:17:52;8.80;;;0.97;;
5279;SDS011;2663;53.588;10.010;2023-07-31T13:20:19;3.07;;;1.17;;
5279;SDS011;2663;53.588;10.010;2023-07-31T13:22:46;0.80;;;0.77;;
5279;SDS011;2663;53.588;10.010;2023-07-31T13:25:13;3.80;;;1.00;;
5279;SDS011;2663;53.588;10.010;2023-07-31T13:27:40;1.43;;;0.80;;
5279;SDS011;2663;53.588;10.010;2023-07-31T13:30:07;0.80;;;0.80;;
5279;SDS011;2663;53.588;10.010;2023-07-31T13:32:33;0.80;;;0.80;;
5279;SDS011;2663;53.588;10.010;2023-07-31T13:35:05;2.47;;;1.10;;
5279;SDS011;2663;53.588;10.010;2023-07-31T13:37:32;10.20;;;1.20;;
5279;SDS011;2663;53.588;10.010;2023-07-31T13:39:59;2.43;;;2.23;;
5279;SDS011;2663;53.588;10.010;2023-07-31T13:42:26;1.60;;;1.50;;
5279;SDS011;2663;53.588;10.010;2023-07-31T13:44:54;1.20;;;1.10;;
5279;SDS011;2663;53.588;10.010;2023-07-31T13:47:22;1.23;;;0.90;;
5279;SDS011;2663;53.588;10.010;2023-07-31T13:49:49;1.20;;;0.70;;
5279;SDS011;2663;53.588;10.010;2023-07-31T13:52:16;1.23;;;0.80;;
5279;SDS011;2663;53.588;10.010;2023-07-31T13:54:42;0.90;;;0.80;;
5279;SDS011;2663;53.588;10.010;2023-07-31T13:57:09;1.03;;;1.03;;
5279;SDS011;2663;53.588;10.010;2023-07-31T13:59:36;1.40;;;1.30;;
5279;SDS011;2663;53.588;10.010;2023-07-31T14:02:02;1.83;;;1.10;;
5279;SDS011;2663;53.588;10.010;2023-07-31T14:04:29;1.10;;;1.10;;
5279;SDS011;2663;53.588;10.010;2023-07-31T14:06:56;1.07;;;1.07;;
5279;SDS011;2663;53.588;10.010;2023-07-31T14:09:23;1.43;;;1.20;;
5279;SDS011;2663;53.588;10.010;2023-07-31T14:11:50;0.97;;;0.90;;
5279;SDS011;2663;53.588;10.010;2023-07-31T14:14:17;1.13;;;1.13;;
5279;SDS011;2663;53.588;10.010;2023-07-31T14:16:44;2.40;;;1.00;;
5279;SDS011;2663;53.588;10.010;2023-07-31T14:19:11;1.10;;;1.00;;
5279;SDS011;2663;53.588;10.010;2023-07-31T14:21:38;1.30;;;1.20;;
5279;SDS011;2663;53.588;10.010;2023-07-31T14:24:05;1.60;;;1.50;;
5279;SDS011;2663;53.588;10.010;2023-07-31T14:26:32;6.00;;;1.20;;
5279;SDS011;2663;53.588;10.010;2023-07-31T14:29:00;1.20;;;1.10;;
5279;SDS011;2663;53.588;10.010;2023-07-31T14:31:30;1.30;;;1.20;;
5279;SDS011;2663;53.588;10.010;2023-07-31T14:33:57;3.33;;;1.70;;
5279;SDS011;2663;53.588;10.010;2023-07-31T14:36:24;2.40;;;1.67;;
5279;SDS011;2663;53.588;10.010;2023-07-31T14:38:51;2.33;;;1.23;;
5279;SDS011;2663;53.588;10.010;2023-07-31T14:41:18;5.03;;;1.30;;
5279;SDS011;2663;53.588;10.010;2023-07-31T14:43:44;2.03;;;1.60;;
5279;SDS011;2663;53.588;10.010;2023-07-31T14:46:11;4.03;;;2.67;;
5279;SDS011;2663;53.588;10.010;2023-07-31T14:48:38;2.63;;;2.10;;
5279;SDS011;2663;53.588;10.010;2023-07-31T14:51:04;2.90;;;2.20;;
5279;SDS011;2663;53.588;10.010;2023-07-31T14:53:31;2.10;;;1.90;;
5279;SDS011;2663;53.588;10.010;2023-07-31T14:55:58;4.30;;;2.00;;
5279;SDS011;2663;53.588;10.010;2023-07-31T14:58:24;2.87;;;2.00;;
5279;SDS011;2663;53.588;10.010;2023-07-31T15:00:51;4.47;;;2.23;;
5279;SDS011;2663;53.588;10.010;2023-07-31T15:03:18;2.83;;;1.73;;
5279;SDS011;2663;53.588;10.010;2023-07-31T15:05:45;2.13;;;1.90;;
5279;SDS011;2663;53.588;10.010;2023-07-31T15:08:12;2.97;;;1.17;;
5279;SDS011;2663;53.588;10.010;2023-07-31T15:10:38;2.53;;;1.60;;
5279;SDS011;2663;53.588;10.010;2023-07-31T15:13:05;1.23;;;1.13;;
5279;SDS011;2663;53.588;10.010;2023-07-31T15:15:32;1.43;;;1.10;;
5279;SDS011;2663;53.588;10.010;2023-07-31T15:17:59;1.00;;;1.00;;
5279;SDS011;2663;53.588;10.010;2023-07-31T15:20:25;2.40;;;0.70;;
5279;SDS011;2663;53.588;10.010;2023-07-31T15:22:52;0.90;;;0.90;;
5279;SDS011;2663;53.588;10.010;2023-07-31T15:25:19;1.47;;;1.30;;